Chinook, Washington
Current Conditions -  °F | °C
As of 2:07 AM on Friday 31 Oct 2014 (Local Time) from KAST Reporting Station
Overcast Overcast  
Wind Chill: 53°   Ceiling: 1900
Heat Index: 53°   Visibility: 10mi
Dew Point: 51°   Wind: 3mph
Humidity: 93%   Direction: 110°ESE
Pressure: 29.73"   Gusts: NA
Location:  46.28°N, 123.94°W
Report Text: KAST 310907Z AUTO 11003KT 10SM BKN019 OVC070 12/11 A2973 RMK AO2 T01170106
Loading
Personal Weather Stations






























Interactive Weather Map
Tropical Storm Tracking
New forecast layout! Learn more

10-Day Weather Forecast

Advertisements
Track Severe Weather on mobile